Blake Denton — WDC7496 — position and weather

sailwx.info

Track history (hours):
 
Tides and Currents Weather Stations Pressure Air Temp Water Temp Dewpoint Dewpoint Depression Visibility Wind Speed Wind Dir Waves Ship Positions

Blake Denton

More information available from US FCC via Universal Licensing System and Coast Guard Vessel Documentation Center.

Last reported at 2014-Sep-07 14:28 UTC. Time now 2014-Sep-21 04:09 UTC.
Position N 30°07' W 091°00'.
Warning: this ship's position is 13 days out of date.

Length 52 m.

Type: Towing. MMSI: 367072210.

Date/timePositionNaut miles runAvg speedWind from/ knotsBaromVisibWave heightAir tempDewpointWater temp
2014-Sep-07 14:28N 30°07' W 091°00'4 1.1
2014-Sep-07 10:32N 30°07' W 090°55'4 4.5
2014-Sep-07 09:33N 30°04' W 090°52'3 3.2
2014-Sep-07 08:32N 30°01' W 090°50'3 2.9
2014-Sep-07 07:33N 30°01' W 090°47'5 5.1
2014-Sep-07 06:33N 30°02' W 090°41'2 2.1
2014-Sep-07 05:33N 30°03' W 090°39'0 0.0
2014-Sep-07 04:33N 30°03' W 090°39'0 0.0
2014-Sep-07 03:33N 30°03' W 090°39'0 0.0
2014-Sep-07 02:33N 30°03' W 090°39'0 0.0
2014-Sep-07 01:33N 30°03' W 090°39'0 0.0
2014-Sep-07 00:33N 30°03' W 090°39'0 0.0
2014-Sep-06 23:33N 30°03' W 090°39'0 0.0
2014-Sep-06 22:33N 30°03' W 090°39'0 0.0
2014-Sep-06 21:33N 30°03' W 090°39'0 0.0
2014-Sep-06 20:33N 30°03' W 090°39'0 0.0
2014-Sep-06 19:33N 30°03' W 090°39'0 0.0
2014-Sep-06 18:33N 30°03' W 090°39'0 0.0
2014-Sep-06 17:33N 30°03' W 090°39'0 0.0
2014-Sep-06 16:33N 30°03' W 090°39'0 0.0
2014-Sep-06 15:33N 30°03' W 090°39'0 0.0
2014-Sep-06 14:33N 30°03' W 090°39'2 2.5
2014-Sep-06 13:33N 30°02' W 090°36'6 6.0
2014-Sep-06 12:33N 30°03' W 090°30'1 0.7
2014-Sep-06 11:33N 30°03' W 090°29'0 0.1
2014-Sep-06 10:32N 30°03' W 090°29'0 0.1
2014-Sep-06 09:33N 30°03' W 090°29'0 0.0
2014-Sep-06 08:33N 30°03' W 090°29'0 0.2
2014-Sep-06 07:33N 30°03' W 090°29'2 2.1
2014-Sep-06 06:33N 30°01' W 090°28'5 4.5
2014-Sep-06 05:33N 29°59' W 090°24'4 4.3
2014-Sep-06 04:33N 29°56' W 090°20'4 3.6
2014-Sep-06 03:33N 29°58' W 090°16'1 0.9
2014-Sep-06 02:30N 29°58' W 090°15'0 0.2
2014-Sep-06 00:09N 29°58' W 090°15'13 1.0
2014-Sep-05 11:07N 30°02' W 090°28'2 3.6
2014-Sep-05 10:34N 30°03' W 090°30'3 3.3
2014-Sep-05 09:33N 30°03' W 090°34'0 0.0
2014-Sep-05 08:33N 30°03' W 090°34'0 0.0
2014-Sep-05 07:33N 30°03' W 090°34'0 0.0
2014-Sep-05 06:33N 30°03' W 090°34'0 0.0
2014-Sep-05 05:34N 30°03' W 090°34'6 4.9
2014-Sep-05 04:20N 30°02' W 090°41'7 8.0
2014-Sep-05 03:24N 29°59' W 090°49'6 6.5
2014-Sep-05 02:34N 30°04' W 090°52'2 2.3
2014-Sep-05 01:28N 30°05' W 090°55'0 0.0
2014-Sep-05 00:11N 30°05' W 090°55'0 0.0
2014-Sep-04 12:15N 30°05' W 090°55'4 3.5
2014-Sep-04 11:10N 30°08' W 090°56'8 3.9
2014-Sep-04 09:05N 30°13' W 091°04'5 7.7
2014-Sep-04 08:29N 30°11' W 091°09'6 4.7
2014-Sep-04 07:06N 30°17' W 091°11'  
Track history (hours):
 
Tides and Currents Weather Stations Pressure Air Temp Water Temp Dewpoint Dewpoint Depression Visibility Wind Speed Wind Dir Waves Ship Positions

Blake Denton

More information available from US FCC via Universal Licensing System and Coast Guard Vessel Documentation Center.

Last reported at 2014-Sep-07 14:28 UTC. Time now 2014-Sep-21 04:09 UTC.
Position N 30°07' W 091°00'.
Warning: this ship's position is 13 days out of date.

Length 52 m.

Type: Towing. MMSI: 367072210.

Date/timePositionNaut miles runAvg speedWind from/ knotsBaromVisibWave heightAir tempDewpointWater temp
2014-Sep-07 14:28N 30°07' W 091°00'4 1.1
2014-Sep-07 10:32N 30°07' W 090°55'4 4.5
2014-Sep-07 09:33N 30°04' W 090°52'3 3.2
2014-Sep-07 08:32N 30°01' W 090°50'3 2.9
2014-Sep-07 07:33N 30°01' W 090°47'5 5.1
2014-Sep-07 06:33N 30°02' W 090°41'2 2.1
2014-Sep-07 05:33N 30°03' W 090°39'0 0.0
2014-Sep-07 04:33N 30°03' W 090°39'0 0.0
2014-Sep-07 03:33N 30°03' W 090°39'0 0.0
2014-Sep-07 02:33N 30°03' W 090°39'0 0.0
2014-Sep-07 01:33N 30°03' W 090°39'0 0.0
2014-Sep-07 00:33N 30°03' W 090°39'0 0.0
2014-Sep-06 23:33N 30°03' W 090°39'0 0.0
2014-Sep-06 22:33N 30°03' W 090°39'0 0.0
2014-Sep-06 21:33N 30°03' W 090°39'0 0.0
2014-Sep-06 20:33N 30°03' W 090°39'0 0.0
2014-Sep-06 19:33N 30°03' W 090°39'0 0.0
2014-Sep-06 18:33N 30°03' W 090°39'0 0.0
2014-Sep-06 17:33N 30°03' W 090°39'0 0.0
2014-Sep-06 16:33N 30°03' W 090°39'0 0.0
2014-Sep-06 15:33N 30°03' W 090°39'0 0.0
2014-Sep-06 14:33N 30°03' W 090°39'2 2.5
2014-Sep-06 13:33N 30°02' W 090°36'6 6.0
2014-Sep-06 12:33N 30°03' W 090°30'1 0.7
2014-Sep-06 11:33N 30°03' W 090°29'0 0.1
2014-Sep-06 10:32N 30°03' W 090°29'0 0.1
2014-Sep-06 09:33N 30°03' W 090°29'0 0.0
2014-Sep-06 08:33N 30°03' W 090°29'0 0.2
2014-Sep-06 07:33N 30°03' W 090°29'2 2.1
2014-Sep-06 06:33N 30°01' W 090°28'5 4.5
2014-Sep-06 05:33N 29°59' W 090°24'4 4.3
2014-Sep-06 04:33N 29°56' W 090°20'4 3.6
2014-Sep-06 03:33N 29°58' W 090°16'1 0.9
2014-Sep-06 02:30N 29°58' W 090°15'0 0.2
2014-Sep-06 00:09N 29°58' W 090°15'13 1.0
2014-Sep-05 11:07N 30°02' W 090°28'2 3.6
2014-Sep-05 10:34N 30°03' W 090°30'3 3.3
2014-Sep-05 09:33N 30°03' W 090°34'0 0.0
2014-Sep-05 08:33N 30°03' W 090°34'0 0.0
2014-Sep-05 07:33N 30°03' W 090°34'0 0.0
2014-Sep-05 06:33N 30°03' W 090°34'0 0.0
2014-Sep-05 05:34N 30°03' W 090°34'6 4.9
2014-Sep-05 04:20N 30°02' W 090°41'7 8.0
2014-Sep-05 03:24N 29°59' W 090°49'6 6.5
2014-Sep-05 02:34N 30°04' W 090°52'2 2.3
2014-Sep-05 01:28N 30°05' W 090°55'0 0.0
2014-Sep-05 00:11N 30°05' W 090°55'0 0.0
2014-Sep-04 12:15N 30°05' W 090°55'4 3.5
2014-Sep-04 11:10N 30°08' W 090°56'8 3.9
2014-Sep-04 09:05N 30°13' W 091°04'5 7.7
2014-Sep-04 08:29N 30°11' W 091°09'6 4.7
2014-Sep-04 07:06N 30°17' W 091°11'  

Dump ship's entire track history